createdAt,value
2022-08-20T00:02:23.278Z,1.60
2022-08-20T00:04:55.141Z,1.23
2022-08-20T00:07:26.985Z,1.53
2022-08-20T00:09:58.884Z,1.20
2022-08-20T00:12:30.744Z,1.30
2022-08-20T00:15:02.629Z,1.10
2022-08-20T00:17:34.492Z,1.10
2022-08-20T00:20:06.322Z,1.60
2022-08-20T00:22:38.362Z,2.07
2022-08-20T00:25:10.314Z,2.20
2022-08-20T00:27:42.180Z,2.70
2022-08-20T00:30:14.039Z,2.53
2022-08-20T00:32:45.918Z,2.80
2022-08-20T00:35:17.807Z,3.43
2022-08-20T00:37:49.700Z,3.00
2022-08-20T00:40:22.774Z,3.73
2022-08-20T00:42:55.032Z,3.43
2022-08-20T00:45:26.866Z,2.50
2022-08-20T00:47:58.752Z,4.27
2022-08-20T00:50:30.575Z,3.20
2022-08-20T00:53:02.429Z,2.20
2022-08-20T00:55:34.267Z,2.27
2022-08-20T00:58:06.221Z,2.00
2022-08-20T01:00:38.331Z,2.37
2022-08-20T01:03:10.161Z,1.97
2022-08-20T01:05:42.058Z,1.87
2022-08-20T01:08:13.867Z,1.77
2022-08-20T01:10:45.764Z,1.63
2022-08-20T01:13:17.568Z,1.93
2022-08-20T01:15:49.428Z,2.00
2022-08-20T01:18:21.260Z,2.07
2022-08-20T01:20:53.115Z,2.50
2022-08-20T01:23:25.075Z,2.50
2022-08-20T01:25:56.932Z,1.97
2022-08-20T01:28:28.739Z,2.23
2022-08-20T01:31:00.603Z,2.20
2022-08-20T01:33:32.425Z,1.70
2022-08-20T01:36:04.301Z,2.17
2022-08-20T01:38:36.074Z,2.40
2022-08-20T01:41:07.977Z,1.93
2022-08-20T01:43:39.812Z,2.33
2022-08-20T01:46:11.639Z,1.93
2022-08-20T01:48:43.473Z,2.30
2022-08-20T01:51:15.319Z,2.40
2022-08-20T01:53:47.178Z,1.80
2022-08-20T01:56:18.996Z,2.50
2022-08-20T01:58:55.837Z,1.70
2022-08-20T02:01:24.320Z,1.43
2022-08-20T02:03:56.187Z,1.83
2022-08-20T02:06:28.055Z,1.57
2022-08-20T02:08:59.877Z,2.37
2022-08-20T02:11:31.715Z,1.70
2022-08-20T02:14:03.674Z,2.23
2022-08-20T02:16:37.126Z,1.40
2022-08-20T02:19:09.070Z,1.33
2022-08-20T02:21:40.947Z,1.50
2022-08-20T02:24:12.812Z,1.60
2022-08-20T02:26:44.704Z,1.60
2022-08-20T02:29:16.719Z,1.63
2022-08-20T02:32:24.352Z,1.60
2022-08-20T02:34:23.100Z,1.43
2022-08-20T02:36:54.989Z,1.80
2022-08-20T02:39:26.882Z,1.00
2022-08-20T02:41:58.716Z,2.10
2022-08-20T02:44:30.619Z,1.20
2022-08-20T02:47:02.628Z,1.27
2022-08-20T02:49:34.472Z,1.17
2022-08-20T02:52:06.410Z,1.30
2022-08-20T02:54:38.287Z,1.47
2022-08-20T02:57:10.175Z,1.30
2022-08-20T02:59:42.410Z,1.17
2022-08-20T03:02:14.282Z,1.10
2022-08-20T03:04:46.117Z,1.20
2022-08-20T03:07:17.996Z,1.00
2022-08-20T03:09:49.848Z,1.10
2022-08-20T03:12:21.678Z,1.60
2022-08-20T03:14:53.525Z,1.83
2022-08-20T03:17:25.355Z,1.13
2022-08-20T03:19:57.173Z,1.00
2022-08-20T03:22:29.021Z,1.30
2022-08-20T03:25:00.884Z,0.97
2022-08-20T03:27:36.186Z,1.07
2022-08-20T03:30:06.220Z,1.20
2022-08-20T03:32:38.081Z,0.87
2022-08-20T03:35:10.042Z,1.20
2022-08-20T03:37:48.090Z,0.90
2022-08-20T03:40:15.405Z,0.90
2022-08-20T03:42:47.476Z,1.30
2022-08-20T03:45:20.572Z,0.93
2022-08-20T03:47:52.617Z,1.10
2022-08-20T03:50:24.474Z,1.00
2022-08-20T03:52:56.269Z,1.20
2022-08-20T03:55:28.160Z,0.80
2022-08-20T03:57:59.973Z,0.93
2022-08-20T04:00:31.868Z,0.83
2022-08-20T04:03:03.690Z,1.50
2022-08-20T04:05:35.521Z,1.10
2022-08-20T04:08:07.350Z,0.90
2022-08-20T04:10:39.208Z,1.10
2022-08-20T04:13:11.116Z,0.93
2022-08-20T04:15:43.508Z,0.83
2022-08-20T04:18:15.484Z,1.20
2022-08-20T04:20:47.373Z,0.83
2022-08-20T04:23:19.363Z,1.00
2022-08-20T04:25:51.242Z,1.40
2022-08-20T04:28:23.538Z,1.00
2022-08-20T04:30:55.357Z,0.80
2022-08-20T04:33:33.757Z,0.80
2022-08-20T04:36:00.811Z,0.83
2022-08-20T04:38:50.068Z,1.00
2022-08-20T04:41:06.146Z,1.67
2022-08-20T04:43:38.017Z,0.90
2022-08-20T04:46:09.881Z,0.80
2022-08-20T04:48:41.723Z,0.70
2022-08-20T04:51:15.226Z,0.90
2022-08-20T04:53:53.212Z,0.90
2022-08-20T04:56:20.549Z,2.20
2022-08-20T04:58:52.576Z,0.77
2022-08-20T05:01:24.598Z,1.23
2022-08-20T05:03:56.385Z,0.80
2022-08-20T05:06:29.107Z,0.90
2022-08-20T05:09:00.994Z,1.00
2022-08-20T05:11:36.734Z,0.83
2022-08-20T05:14:08.246Z,1.00
2022-08-20T05:16:40.115Z,0.90
2022-08-20T05:19:12.544Z,1.00
2022-08-20T05:21:44.433Z,1.10
2022-08-20T05:24:16.610Z,0.90
2022-08-20T05:26:48.441Z,1.00
2022-08-20T05:29:20.296Z,0.97
2022-08-20T05:31:52.134Z,1.00
2022-08-20T05:34:24.036Z,0.87
2022-08-20T05:36:55.860Z,1.20
2022-08-20T05:39:27.821Z,1.00
2022-08-20T05:41:59.864Z,0.87
2022-08-20T05:44:31.864Z,1.00
2022-08-20T05:47:04.152Z,0.90
2022-08-20T05:49:36.351Z,0.90
2022-08-20T05:52:08.236Z,0.90
2022-08-20T05:54:40.921Z,1.00
2022-08-20T05:57:13.221Z,0.93
2022-08-20T05:59:45.145Z,1.20
2022-08-20T06:02:17.261Z,1.50
2022-08-20T06:04:56.318Z,1.27
2022-08-20T06:07:24.229Z,1.20
2022-08-20T06:09:56.069Z,1.90
2022-08-20T06:12:27.986Z,0.80
2022-08-20T06:15:00.098Z,1.20
2022-08-20T06:17:39.255Z,1.10
2022-08-20T06:20:05.845Z,2.00
2022-08-20T06:22:38.950Z,1.47
2022-08-20T06:25:11.379Z,1.60
2022-08-20T06:27:43.274Z,1.00
2022-08-20T06:30:15.119Z,0.60
2022-08-20T06:32:47.519Z,0.80
2022-08-20T06:35:20.173Z,1.07
2022-08-20T06:37:52.266Z,1.10
2022-08-20T06:40:24.081Z,0.90
2022-08-20T06:42:55.934Z,0.70
2022-08-20T06:45:27.847Z,0.93
2022-08-20T06:47:59.691Z,0.93
2022-08-20T06:50:31.556Z,0.60
2022-08-20T06:53:03.494Z,1.07
2022-08-20T06:55:35.530Z,0.83
2022-08-20T06:58:07.396Z,0.67
2022-08-20T07:00:41.145Z,0.90
2022-08-20T07:03:13.194Z,0.73
2022-08-20T07:05:45.294Z,0.80
2022-08-20T07:08:17.208Z,0.70
2022-08-20T07:10:51.933Z,0.63
2022-08-20T07:13:24.238Z,0.50
2022-08-20T07:15:57.438Z,0.63
2022-08-20T07:18:29.321Z,0.87
2022-08-20T07:21:01.159Z,0.30
2022-08-20T07:23:33.016Z,0.60
2022-08-20T07:26:05.452Z,1.63
2022-08-20T07:28:37.424Z,0.80
2022-08-20T07:31:13.802Z,0.50
2022-08-20T07:33:44.307Z,0.50
2022-08-20T07:36:17.168Z,0.93
2022-08-20T07:38:49.864Z,0.57
2022-08-20T07:41:21.716Z,0.77
2022-08-20T07:43:53.602Z,0.93
2022-08-20T07:46:31.120Z,0.50
2022-08-20T07:48:59.059Z,0.70
2022-08-20T07:51:31.553Z,1.20
2022-08-20T07:54:03.933Z,0.70
2022-08-20T07:56:36.554Z,0.47
2022-08-20T07:59:08.950Z,0.80
2022-08-20T08:01:40.719Z,1.00
2022-08-20T08:04:12.572Z,1.47
2022-08-20T08:06:44.801Z,0.50
2022-08-20T08:09:16.634Z,0.57
2022-08-20T08:11:48.452Z,0.40
2022-08-20T08:14:20.282Z,0.60
2022-08-20T08:16:52.308Z,0.47
2022-08-20T08:19:24.448Z,0.50
2022-08-20T08:21:56.288Z,0.60
2022-08-20T08:24:30.242Z,0.43
2022-08-20T08:27:02.075Z,0.83
2022-08-20T08:29:33.899Z,1.03
2022-08-20T08:32:06.189Z,0.40
2022-08-20T08:34:38.649Z,0.67
2022-08-20T08:37:10.513Z,0.50
2022-08-20T08:39:42.426Z,0.80
2022-08-20T08:42:14.276Z,0.50
2022-08-20T08:44:46.168Z,0.30
2022-08-20T08:47:18.053Z,0.40
2022-08-20T08:49:50.279Z,0.40
2022-08-20T08:52:22.128Z,1.20
2022-08-20T08:54:55.046Z,0.80
2022-08-20T08:57:27.135Z,0.50
2022-08-20T09:00:05.048Z,0.53
2022-08-20T09:02:32.725Z,0.33
2022-08-20T09:05:05.149Z,0.50
2022-08-20T09:07:36.961Z,0.57
2022-08-20T09:10:08.951Z,1.60
2022-08-20T09:12:45.687Z,1.17
2022-08-20T09:15:14.945Z,0.60
2022-08-20T09:17:46.812Z,0.87
2022-08-20T09:20:18.740Z,0.60
2022-08-20T09:22:50.631Z,0.50
2022-08-20T09:25:24.118Z,0.77
2022-08-20T09:27:55.982Z,0.60
2022-08-20T09:30:29.442Z,0.67
2022-08-20T09:33:01.381Z,0.70
2022-08-20T09:35:33.201Z,0.90
2022-08-20T09:38:05.063Z,1.70
2022-08-20T09:40:37.008Z,1.37
2022-08-20T09:43:08.889Z,0.70
2022-08-20T09:45:40.709Z,0.77
2022-08-20T09:48:12.660Z,1.43
2022-08-20T09:50:45.555Z,0.40
2022-08-20T09:53:17.548Z,0.83
2022-08-20T09:55:49.318Z,0.70
2022-08-20T09:58:21.195Z,0.40
2022-08-20T10:00:53.054Z,1.00
2022-08-20T10:03:24.963Z,0.93
2022-08-20T10:05:56.777Z,0.40
2022-08-20T10:08:28.922Z,0.73
2022-08-20T10:11:00.773Z,1.03
2022-08-20T10:13:32.618Z,0.50
2022-08-20T10:16:04.462Z,1.47
2022-08-20T10:18:36.578Z,0.83
2022-08-20T10:21:08.395Z,0.90
2022-08-20T10:23:40.258Z,0.60
2022-08-20T10:26:12.254Z,0.60
2022-08-20T10:28:44.230Z,1.33
2022-08-20T10:31:16.127Z,0.57
2022-08-20T10:33:48.891Z,0.70
2022-08-20T10:36:21.089Z,0.90
2022-08-20T10:38:52.908Z,0.50
2022-08-20T10:41:24.760Z,1.80
2022-08-20T10:43:56.728Z,0.70
2022-08-20T10:46:28.702Z,0.73
2022-08-20T10:49:00.755Z,0.70
2022-08-20T10:51:33.124Z,1.10
2022-08-20T10:54:06.259Z,0.50
2022-08-20T10:56:38.597Z,0.80
2022-08-20T10:59:10.679Z,0.60
2022-08-20T11:01:42.659Z,0.90
2022-08-20T11:04:14.580Z,1.43
2022-08-20T11:06:47.271Z,0.87
2022-08-20T11:09:19.275Z,1.10
2022-08-20T11:11:51.165Z,0.83
2022-08-20T11:14:23.117Z,0.87
2022-08-20T11:16:54.920Z,0.87
2022-08-20T11:19:26.847Z,0.70
2022-08-20T11:21:58.791Z,0.80
2022-08-20T11:24:30.637Z,1.07
2022-08-20T11:27:02.552Z,0.70
2022-08-20T11:29:34.444Z,1.33
2022-08-20T11:32:06.287Z,0.60
2022-08-20T11:34:39.072Z,0.90
2022-08-20T11:37:11.103Z,0.97
2022-08-20T11:39:42.990Z,0.63
2022-08-20T11:42:15.046Z,0.60
2022-08-20T11:44:46.911Z,0.67
2022-08-20T11:47:18.751Z,1.03
2022-08-20T11:49:50.902Z,0.93
2022-08-20T11:52:22.736Z,0.77
2022-08-20T11:54:56.193Z,0.80
2022-08-20T11:57:29.148Z,0.70
2022-08-20T12:00:01.085Z,1.33
2022-08-20T12:02:34.689Z,1.53
2022-08-20T12:05:06.781Z,1.23
2022-08-20T12:07:38.602Z,0.60
2022-08-20T12:10:10.507Z,0.63
2022-08-20T12:12:42.331Z,1.47
2022-08-20T12:15:14.196Z,0.60
2022-08-20T12:17:46.047Z,0.70
2022-08-20T12:20:17.899Z,0.63
2022-08-20T12:22:49.838Z,0.73
2022-08-20T12:25:21.798Z,0.80
2022-08-20T12:27:53.685Z,0.93
2022-08-20T12:30:25.526Z,0.80
2022-08-20T12:32:57.586Z,0.73
2022-08-20T12:35:29.651Z,1.03
2022-08-20T12:38:03.485Z,1.10
2022-08-20T12:40:35.396Z,1.27
2022-08-20T12:43:07.267Z,1.13
2022-08-20T12:45:39.235Z,1.67
2022-08-20T12:48:11.059Z,0.70
2022-08-20T12:50:43.070Z,1.00
2022-08-20T12:53:15.399Z,0.97
2022-08-20T12:55:47.518Z,0.60
2022-08-20T12:58:19.525Z,0.60
2022-08-20T13:00:52.806Z,0.70
2022-08-20T13:03:24.636Z,0.73
2022-08-20T13:05:56.500Z,0.60
2022-08-20T13:08:28.304Z,0.80
2022-08-20T13:11:00.176Z,0.60
2022-08-20T13:13:31.999Z,0.60
2022-08-20T13:16:03.817Z,0.50
2022-08-20T13:18:35.592Z,0.90
2022-08-20T13:21:07.453Z,0.93
2022-08-20T13:23:39.263Z,1.00
2022-08-20T13:26:11.122Z,0.73
2022-08-20T13:28:42.992Z,0.43
2022-08-20T13:31:14.820Z,0.77
2022-08-20T13:33:46.658Z,0.80
2022-08-20T13:36:18.563Z,1.00
2022-08-20T13:38:50.412Z,0.50
2022-08-20T13:41:22.239Z,0.60
2022-08-20T13:43:54.091Z,0.77
2022-08-20T13:46:26.065Z,0.80
2022-08-20T13:48:57.941Z,0.63
2022-08-20T13:51:30.634Z,0.80
2022-08-20T13:54:02.650Z,0.77
2022-08-20T13:56:34.574Z,0.80
2022-08-20T13:59:06.993Z,0.70
2022-08-20T14:01:40.523Z,0.70
2022-08-20T14:04:13.109Z,0.70
2022-08-20T14:06:45.034Z,1.17
2022-08-20T14:09:16.889Z,0.80
2022-08-20T14:11:48.856Z,0.90
2022-08-20T14:14:20.695Z,0.70
2022-08-20T14:16:52.557Z,1.10
2022-08-20T14:19:24.438Z,1.10
2022-08-20T14:21:56.306Z,0.63
2022-08-20T14:24:28.174Z,0.80
2022-08-20T14:27:00.035Z,1.00
2022-08-20T14:29:32.167Z,0.60
2022-08-20T14:32:05.408Z,0.60
2022-08-20T14:34:37.321Z,1.20
2022-08-20T14:37:09.240Z,0.70
2022-08-20T14:39:41.134Z,1.00
2022-08-20T14:42:12.962Z,0.70
2022-08-20T14:44:46.756Z,0.80
2022-08-20T14:47:18.669Z,1.33
2022-08-20T14:49:50.575Z,0.93
2022-08-20T14:52:22.477Z,1.60
2022-08-20T14:54:54.320Z,1.40
2022-08-20T14:57:26.217Z,0.87
2022-08-20T14:59:58.079Z,0.70
2022-08-20T15:02:29.934Z,1.03
2022-08-20T15:05:02.057Z,0.80
2022-08-20T15:07:33.936Z,1.30
2022-08-20T15:10:05.747Z,0.70
2022-08-20T15:12:37.600Z,1.07
2022-08-20T15:15:15.832Z,0.57
2022-08-20T15:17:44.227Z,1.67
2022-08-20T15:20:20.297Z,0.90
2022-08-20T15:22:49.788Z,1.10
2022-08-20T15:25:22.034Z,1.00
2022-08-20T15:27:53.905Z,0.60
2022-08-20T15:30:27.385Z,0.80
2022-08-20T15:32:59.591Z,0.70
2022-08-20T15:35:31.741Z,0.50
2022-08-20T15:38:03.647Z,1.10
2022-08-20T15:40:35.962Z,0.83
2022-08-20T15:43:08.324Z,0.80
2022-08-20T15:45:40.330Z,1.00
2022-08-20T15:48:12.710Z,0.60
2022-08-20T15:50:45.033Z,0.97
2022-08-20T15:53:17.088Z,1.43
2022-08-20T15:55:48.861Z,0.90
2022-08-20T15:58:20.827Z,1.00
2022-08-20T16:00:52.668Z,0.80
2022-08-20T16:03:25.546Z,0.93
2022-08-20T16:05:57.430Z,1.10
2022-08-20T16:08:29.500Z,1.03
2022-08-20T16:11:02.717Z,0.80
2022-08-20T16:13:34.781Z,1.57
2022-08-20T16:16:06.681Z,0.80
2022-08-20T16:18:38.850Z,0.70
2022-08-20T16:21:10.813Z,0.70
2022-08-20T16:23:43.143Z,1.27
2022-08-20T16:26:15.113Z,1.40
2022-08-20T16:28:46.944Z,0.50
2022-08-20T16:31:18.831Z,0.50
2022-08-20T16:33:50.693Z,1.03
2022-08-20T16:36:22.718Z,1.17
2022-08-20T16:38:54.774Z,0.90
2022-08-20T16:41:26.583Z,1.23
2022-08-20T16:43:58.578Z,0.73
2022-08-20T16:46:30.393Z,0.50
2022-08-20T16:49:02.291Z,0.57
2022-08-20T16:51:34.181Z,1.10
2022-08-20T16:54:06.092Z,0.70
2022-08-20T16:56:38.074Z,0.50
2022-08-20T16:59:09.906Z,1.40
2022-08-20T17:01:41.758Z,0.63
2022-08-20T17:04:13.806Z,0.83
2022-08-20T17:06:45.657Z,0.60
2022-08-20T17:09:21.091Z,0.70
2022-08-20T17:11:52.210Z,1.13
2022-08-20T17:14:24.055Z,0.67
2022-08-20T17:16:57.288Z,0.80
2022-08-20T17:19:29.258Z,0.83
2022-08-20T17:22:01.123Z,0.83
2022-08-20T17:24:33.039Z,0.50
2022-08-20T17:27:04.837Z,0.50
2022-08-20T17:29:38.453Z,0.70
2022-08-20T17:32:10.372Z,0.50
2022-08-20T17:34:42.314Z,0.43
2022-08-20T17:37:14.439Z,0.50
2022-08-20T17:39:46.395Z,0.50
2022-08-20T17:42:18.333Z,0.83
2022-08-20T17:44:50.185Z,0.63
2022-08-20T17:47:22.045Z,0.43
2022-08-20T17:50:01.965Z,0.60
2022-08-20T17:52:29.019Z,0.30
2022-08-20T17:55:01.050Z,0.70
2022-08-20T17:57:33.238Z,0.50
2022-08-20T18:00:05.259Z,0.57
2022-08-20T18:02:36.532Z,1.00
2022-08-20T18:05:08.421Z,1.00
2022-08-20T18:07:40.649Z,1.00
2022-08-20T18:10:12.612Z,0.90
2022-08-20T18:12:44.478Z,0.70
2022-08-20T18:15:16.296Z,0.70
2022-08-20T18:17:48.181Z,0.83
2022-08-20T18:20:19.993Z,0.50
2022-08-20T18:22:51.816Z,0.40
2022-08-20T18:25:23.703Z,0.80
2022-08-20T18:27:55.553Z,0.60
2022-08-20T18:30:27.476Z,0.50
2022-08-20T18:32:59.303Z,0.40
2022-08-20T18:35:31.200Z,0.40
2022-08-20T18:38:04.221Z,0.70
2022-08-20T18:40:36.428Z,0.50
2022-08-20T18:43:08.363Z,0.40
2022-08-20T18:45:40.195Z,0.50
2022-08-20T18:48:12.055Z,0.40
2022-08-20T18:50:43.875Z,0.57
2022-08-20T18:53:15.733Z,1.77
2022-08-20T18:55:47.531Z,0.40
2022-08-20T18:58:19.416Z,0.60
2022-08-20T19:00:51.249Z,0.70
2022-08-20T19:03:23.152Z,0.80
2022-08-20T19:05:54.995Z,1.20
2022-08-20T19:08:28.086Z,2.53
2022-08-20T19:10:59.947Z,2.60
2022-08-20T19:13:31.846Z,1.20
2022-08-20T19:16:03.714Z,1.00
2022-08-20T19:18:36.473Z,1.53
2022-08-20T19:21:15.531Z,1.27
2022-08-20T19:23:41.947Z,1.27
2022-08-20T19:26:25.837Z,1.33
2022-08-20T19:28:47.321Z,1.10
2022-08-20T19:31:19.172Z,1.00
2022-08-20T19:33:51.636Z,1.10
2022-08-20T19:36:25.187Z,1.40
2022-08-20T19:38:57.868Z,1.20
2022-08-20T19:41:30.961Z,1.63
2022-08-20T19:44:03.001Z,1.37
2022-08-20T19:46:34.849Z,1.10
2022-08-20T19:49:06.691Z,1.00
2022-08-20T19:51:42.235Z,0.90
2022-08-20T19:54:11.954Z,0.80
2022-08-20T19:56:43.785Z,0.80
2022-08-20T19:59:15.661Z,0.77
2022-08-20T20:01:47.625Z,1.37
2022-08-20T20:04:19.853Z,1.10
2022-08-20T20:06:51.665Z,0.80
2022-08-20T20:09:24.013Z,1.20
2022-08-20T20:11:55.981Z,1.73
2022-08-20T20:14:27.891Z,0.70
2022-08-20T20:16:59.801Z,0.60
2022-08-20T20:19:31.776Z,0.67
2022-08-20T20:22:03.817Z,1.53
2022-08-20T20:24:35.666Z,0.70
2022-08-20T20:27:07.535Z,0.80
2022-08-20T20:29:41.154Z,1.03
2022-08-20T20:32:12.930Z,1.10
2022-08-20T20:34:55.496Z,1.10
2022-08-20T20:37:18.775Z,0.80
2022-08-20T20:39:52.356Z,0.70
2022-08-20T20:42:24.410Z,1.00
2022-08-20T20:44:56.271Z,0.97
2022-08-20T20:47:28.102Z,0.77
2022-08-20T20:49:59.987Z,0.93
2022-08-20T20:52:31.889Z,0.97
2022-08-20T20:55:03.780Z,0.80
2022-08-20T20:57:38.898Z,1.20
2022-08-20T21:00:09.301Z,0.80
2022-08-20T21:02:41.285Z,1.10
2022-08-20T21:05:13.129Z,1.20
2022-08-20T21:07:44.964Z,1.00
2022-08-20T21:10:18.423Z,1.20
2022-08-20T21:12:52.902Z,1.00
2022-08-20T21:15:23.987Z,1.30
2022-08-20T21:17:56.689Z,1.00
2022-08-20T21:20:28.528Z,1.20
2022-08-20T21:23:00.350Z,1.00
2022-08-20T21:25:32.161Z,1.00
2022-08-20T21:28:04.026Z,1.37
2022-08-20T21:30:35.839Z,0.93
2022-08-20T21:33:08.865Z,1.03
2022-08-20T21:35:40.656Z,1.83
2022-08-20T21:38:13.994Z,0.90
2022-08-20T21:40:46.191Z,0.80
2022-08-20T21:43:18.848Z,1.00
2022-08-20T21:45:50.786Z,1.30
2022-08-20T21:48:22.678Z,1.43
2022-08-20T21:50:54.504Z,1.73
2022-08-20T21:53:26.399Z,1.20
2022-08-20T21:55:58.194Z,0.90
2022-08-20T21:58:30.173Z,0.90
2022-08-20T22:01:02.070Z,1.00
2022-08-20T22:03:33.918Z,1.03
2022-08-20T22:06:07.365Z,0.83
2022-08-20T22:08:39.206Z,1.30
2022-08-20T22:11:11.056Z,1.00
2022-08-20T22:13:42.900Z,0.67
2022-08-20T22:16:14.732Z,1.20
2022-08-20T22:18:46.621Z,0.70
2022-08-20T22:21:18.864Z,0.90
2022-08-20T22:23:50.695Z,1.00
2022-08-20T22:26:22.659Z,1.00
2022-08-20T22:28:56.221Z,1.00
2022-08-20T22:31:28.119Z,1.03
2022-08-20T22:34:00.056Z,0.93
2022-08-20T22:36:32.550Z,1.13
2022-08-20T22:39:04.763Z,0.87
2022-08-20T22:41:36.667Z,1.30
2022-08-20T22:44:08.621Z,0.80
2022-08-20T22:46:44.977Z,1.53
2022-08-20T22:49:16.718Z,0.70
2022-08-20T22:51:48.896Z,1.73
2022-08-20T22:54:22.442Z,1.00
2022-08-20T22:56:54.472Z,0.90
2022-08-20T22:59:26.316Z,0.80
2022-08-20T23:01:58.131Z,1.73
2022-08-20T23:04:30.496Z,2.80
2022-08-20T23:07:02.461Z,1.10
2022-08-20T23:09:34.259Z,0.83
2022-08-20T23:12:06.184Z,1.10
2022-08-20T23:14:38.216Z,1.20
2022-08-20T23:17:13.278Z,1.93
2022-08-20T23:19:43.705Z,1.43
2022-08-20T23:22:15.560Z,1.30
2022-08-20T23:24:47.374Z,1.83
2022-08-20T23:27:19.245Z,1.00
2022-08-20T23:29:51.043Z,0.83
2022-08-20T23:32:22.902Z,1.63
2022-08-20T23:34:54.721Z,1.20
2022-08-20T23:37:26.555Z,1.50
2022-08-20T23:39:58.462Z,0.97
2022-08-20T23:42:30.457Z,1.17
2022-08-20T23:45:03.785Z,1.10
2022-08-20T23:47:35.616Z,1.10
2022-08-20T23:50:07.455Z,0.97
2022-08-20T23:52:39.292Z,0.90
2022-08-20T23:55:11.135Z,1.20
2022-08-20T23:57:46.767Z,1.40
